Time;durP1;ratioP1;P1;durP2;ratioP2;P2;SDS_P1;SDS_P2;PMS_P1;PMS_P2;Temp;Humidity;BMP_temperature;BMP_pressure;BME280_temperature;BME280_humidity;BME280_pressure;Samples;Min_cycle;Max_cycle;Signal;HPM_P1;HPM_P2
2022/01/31 00:01:05;;;;;;;24.33;11.03;;;;;;;2.17;62.32;99634.28;5064614;28;20273;-68
2022/01/31 00:03:34;;;;;;;18.20;10.83;;;;;;;1.77;62.53;99612.88;5058594;28;20240;-69
2022/01/31 00:06:02;;;;;;;19.10;10.87;;;;;;;1.97;62.56;99646.38;5064577;28;20258;-68
2022/01/31 00:08:29;;;;;;;16.27;10.63;;;;;;;1.80;62.87;99634.53;5060959;28;20261;-68
2022/01/31 00:10:55;;;;;;;16.17;9.87;;;;;;;1.75;62.54;99621.75;5055544;28;20737;-69
2022/01/31 00:13:34;;;;;;;18.40;10.17;;;;;;;2.20;61.52;99620.91;5065348;28;20650;-68
2022/01/31 00:16:01;;;;;;;19.57;9.73;;;;;;;2.35;61.51;99629.38;5066540;28;20268;-68
2022/01/31 00:18:28;;;;;;;18.53;10.27;;;;;;;2.61;60.84;99621.19;5068212;28;20229;-69
2022/01/31 00:20:55;;;;;;;16.17;9.93;;;;;;;2.29;61.32;99606.16;5068064;28;20257;-68
2022/01/31 00:23:22;;;;;;;20.13;11.73;;;;;;;2.07;62.60;99610.53;5068514;28;20852;-68
2022/01/31 00:25:49;;;;;;;19.63;11.17;;;;;;;2.33;61.56;99594.44;5069802;28;20258;-68
2022/01/31 00:28:15;;;;;;;22.60;11.40;;;;;;;2.25;62.25;99588.97;5084597;28;20725;-67
2022/01/31 00:30:42;;;;;;;20.00;11.40;;;;;;;1.98;62.69;99561.25;5067590;28;20256;-67
2022/01/31 00:33:09;;;;;;;20.87;10.57;;;;;;;1.77;63.33;99555.88;5081557;28;20624;-67
2022/01/31 00:35:35;;;;;;;16.03;10.20;;;;;;;2.35;61.75;99549.59;5069701;28;20234;-67
2022/01/31 00:38:02;;;;;;;21.43;10.47;;;;;;;2.29;61.61;99556.16;5084350;28;20319;-68
2022/01/31 00:40:29;;;;;;;18.13;10.43;;;;;;;1.92;62.57;99552.03;5067160;28;20737;-66
2022/01/31 00:42:56;;;;;;;16.13;10.37;;;;;;;1.50;63.64;99543.91;5068302;28;20264;-67
2022/01/31 00:45:28;;;;;;;22.67;10.77;;;;;;;1.86;63.63;99551.69;5068051;28;20254;-67
2022/01/31 00:48:01;;;;;;;20.47;11.17;;;;;;;1.99;62.89;99572.59;5084499;28;20300;-67
2022/01/31 00:50:39;;;;;;;23.37;10.30;;;;;;;2.11;62.30;99561.94;5067998;28;20234;-67
2022/01/31 00:53:06;;;;;;;19.27;10.87;;;;;;;1.37;64.08;99520.31;5068267;28;20780;-66
2022/01/31 00:55:33;;;;;;;18.40;10.27;;;;;;;1.95;62.88;99537.78;5068421;28;20297;-67
2022/01/31 00:58:00;;;;;;;22.10;10.53;;;;;;;2.44;61.79;99533.88;5068901;28;20565;-67
2022/01/31 01:00:26;;;;;;;16.23;9.90;;;;;;;1.73;63.22;99510.56;5059894;28;20230;-67
2022/01/31 01:02:53;;;;;;;17.93;10.33;;;;;;;1.89;63.33;99517.25;5069041;28;20237;-67
2022/01/31 01:05:20;;;;;;;16.67;10.27;;;;;;;2.08;62.73;99506.91;5066515;28;20299;-67
2022/01/31 01:07:47;;;;;;;15.33;9.50;;;;;;;1.77;63.97;99494.53;5067312;28;20249;-67
2022/01/31 01:10:15;;;;;;;17.47;10.57;;;;;;;2.41;62.09;99488.50;5066958;28;20234;-67
2022/01/31 01:12:43;;;;;;;19.93;10.77;;;;;;;2.37;62.25;99487.94;5068047;28;20237;-66
2022/01/31 01:15:10;;;;;;;24.07;10.83;;;;;;;2.54;61.48;99459.38;5083693;28;20265;-67
2022/01/31 01:17:37;;;;;;;20.57;9.80;;;;;;;-0.12;65.68;99330.28;5067033;28;20877;-67
2022/01/31 01:20:05;;;;;;;18.47;10.27;;;;;;;0.31;66.81;99412.78;5067032;28;20289;-67
2022/01/31 01:22:32;;;;;;;16.27;9.47;;;;;;;1.70;64.83;99463.50;5067443;28;20261;-67
2022/01/31 01:25:03;;;;;;;16.27;9.93;;;;;;;1.85;63.68;99437.72;5068273;28;20715;-67
2022/01/31 01:27:30;;;;;;;19.20;11.07;;;;;;;2.02;62.94;99420.63;5067914;28;20751;-67
2022/01/31 01:29:57;;;;;;;18.93;10.30;;;;;;;0.61;67.08;99399.16;5083347;28;20238;-67
2022/01/31 01:32:26;;;;;;;24.83;10.40;;;;;;;0.53;67.79;99398.06;5067499;28;20239;-67
2022/01/31 01:34:53;;;;;;;18.03;10.23;;;;;;;-0.77;69.64;99250.28;5078662;28;20249;-67
2022/01/31 01:37:20;;;;;;;24.50;10.10;;;;;;;-1.60;73.68;99217.72;5065826;28;21141;-67
2022/01/31 01:39:47;;;;;;;16.67;9.47;;;;;;;-0.77;73.87;99362.91;5068139;28;20238;-67
2022/01/31 01:42:13;;;;;;;16.23;9.47;;;;;;;-0.25;71.78;99379.31;5067269;28;20268;-67
2022/01/31 01:44:50;;;;;;;21.23;11.17;;;;;;;1.02;68.72;99368.03;5067108;28;20274;-67
2022/01/31 01:47:24;;;;;;;20.53;10.90;;;;;;;1.26;66.84;99357.38;5067080;28;20239;-66
2022/01/31 01:49:52;;;;;;;18.50;10.30;;;;;;;1.50;64.83;99312.59;5067663;28;20264;-67
2022/01/31 01:52:20;;;;;;;17.70;10.03;;;;;;;0.50;67.00;99286.28;5067336;28;20624;-66
2022/01/31 01:54:48;;;;;;;17.97;12.03;;;;;;;-0.04;71.50;99321.00;5067932;28;20233;-67
2022/01/31 01:57:17;;;;;;;17.13;10.83;;;;;;;0.92;68.06;99306.69;5066835;28;20261;-67
2022/01/31 01:59:43;;;;;;;22.33;11.67;;;;;;;1.56;65.34;99280.53;5065673;28;20658;-67
2022/01/31 02:02:10;;;;;;;18.87;11.47;;;;;;;0.48;68.67;99263.75;5067225;28;20246;-67
2022/01/31 02:04:37;;;;;;;16.17;11.00;;;;;;;-0.01;71.84;99299.78;5066217;28;20323;-67
2022/01/31 02:07:04;;;;;;;17.97;10.23;;;;;;;1.07;68.65;99294.13;5067318;28;20652;-67
2022/01/31 02:09:32;;;;;;;18.30;11.10;;;;;;;0.90;68.80;99288.41;5066507;28;20345;-67
2022/01/31 02:11:59;;;;;;;20.93;11.03;;;;;;;0.96;68.40;99280.06;5067066;28;20603;-67
2022/01/31 02:14:26;;;;;;;15.47;9.60;;;;;;;1.21;67.25;99270.22;5066266;28;20228;-67
2022/01/31 02:16:53;;;;;;;20.97;11.37;;;;;;;-0.10;71.91;99264.63;5066675;28;20323;-67
2022/01/31 02:19:22;;;;;;;16.00;10.27;;;;;;;1.16;69.06;99270.59;5067176;28;20287;-67
2022/01/31 02:21:50;;;;;;;23.03;10.23;;;;;;;1.60;66.45;99228.56;5067244;28;20849;-67
2022/01/31 02:24:18;;;;;;;16.37;9.20;;;;;;;2.01;65.36;99211.09;5068052;28;20311;-67
2022/01/31 02:26:45;;;;;;;15.80;10.07;;;;;;;0.77;67.25;99153.81;5065698;28;20721;-67
2022/01/31 02:29:11;;;;;;;18.33;8.90;;;;;;;0.54;69.47;99187.13;5066377;28;20269;-67
2022/01/31 02:31:46;;;;;;;20.63;8.67;;;;;;;-0.04;71.50;99158.41;5066779;28;20303;-66
2022/01/31 02:34:15;;;;;;;17.23;8.63;;;;;;;1.63;66.71;99159.09;5065409;28;20256;-67
2022/01/31 02:36:42;;;;;;;16.10;8.37;;;;;;;0.80;67.15;99109.75;5063638;28;20231;-67
2022/01/31 02:39:10;;;;;;;15.93;8.73;;;;;;;1.75;66.58;99156.28;5065001;28;20299;-67
2022/01/31 02:41:44;;;;;;;17.17;9.53;;;;;;;1.91;65.52;99144.44;5082003;28;20244;-67
2022/01/31 02:44:15;;;;;;;16.00;9.13;;;;;;;1.74;66.17;99144.06;5065940;28;20238;-67
2022/01/31 02:46:49;;;;;;;18.57;8.50;;;;;;;1.77;66.37;99142.16;5065738;28;20261;-67
2022/01/31 02:49:19;;;;;;;21.53;9.00;;;;;;;1.80;65.82;99123.47;5065146;28;20292;-67
2022/01/31 02:51:50;;;;;;;15.63;8.13;;;;;;;1.61;66.77;99111.91;5060633;28;20250;-67
2022/01/31 02:54:17;;;;;;;16.90;8.90;;;;;;;1.68;66.21;99107.78;5065568;28;20276;-66
2022/01/31 02:56:43;;;;;;;16.17;8.33;;;;;;;1.76;66.11;99112.41;5065479;28;20266;-67
2022/01/31 02:59:10;;;;;;;13.53;7.90;;;;;;;1.74;65.84;99101.19;5065898;28;20327;-68
2022/01/31 03:01:38;;;;;;;13.17;7.67;;;;;;;2.43;64.22;99068.03;5066329;28;20230;-67
2022/01/31 03:04:05;;;;;;;18.60;8.10;;;;;;;1.24;65.53;99022.97;5065446;28;20676;-67
2022/01/31 03:06:31;;;;;;;16.17;6.80;;;;;;;0.30;69.49;99050.84;5065667;28;20258;-66
2022/01/31 03:08:58;;;;;;;12.23;7.20;;;;;;;-0.91;73.55;98972.91;5065424;28;20786;-67
2022/01/31 03:11:25;;;;;;;14.83;7.43;;;;;;;-1.02;75.08;98985.97;5065650;28;20260;-67
2022/01/31 03:13:51;;;;;;;11.17;5.33;;;;;;;-0.90;73.81;98958.84;5065797;28;20544;-67
2022/01/31 03:16:18;;;;;;;16.63;6.27;;;;;;;0.16;71.73;99036.22;5065621;28;20299;-67
2022/01/31 03:18:45;;;;;;;11.47;6.10;;;;;;;0.94;68.37;99039.53;5066247;28;20225;-67
2022/01/31 03:21:14;;;;;;;13.10;6.23;;;;;;;1.17;67.28;99041.06;5065355;28;20348;-67
2022/01/31 03:23:43;;;;;;;9.50;5.90;;;;;;;1.80;66.22;99039.31;5065705;28;20296;-67
2022/01/31 03:26:09;;;;;;;14.43;6.57;;;;;;;1.37;67.10;99030.66;5066415;28;20237;-67
2022/01/31 03:28:36;;;;;;;10.20;6.40;;;;;;;1.02;69.27;99052.84;5065773;28;20661;-67
2022/01/31 03:31:02;;;;;;;11.40;5.83;;;;;;;1.59;66.52;99023.63;5066020;28;20272;-67
2022/01/31 03:33:31;;;;;;;13.93;7.03;;;;;;;2.09;64.86;98995.53;5062049;28;20251;-67
2022/01/31 03:35:58;;;;;;;14.93;5.83;;;;;;;1.59;65.99;99007.84;5065561;28;20319;-67
2022/01/31 03:38:24;;;;;;;10.67;5.33;;;;;;;0.07;70.50;99003.72;5064632;28;21006;-67
2022/01/31 03:40:51;;;;;;;12.20;6.23;;;;;;;0.31;68.67;98976.47;5063678;28;20262;-67
2022/01/31 03:43:17;;;;;;;11.10;6.40;;;;;;;1.50;67.11;99039.22;5064241;28;20234;-67
2022/01/31 03:45:44;;;;;;;12.73;5.87;;;;;;;2.09;65.56;99026.25;5064313;28;20257;-67
2022/01/31 03:48:11;;;;;;;8.90;5.97;;;;;;;1.69;65.85;99020.06;5064127;28;20912;-66
2022/01/31 03:50:39;;;;;;;12.87;5.77;;;;;;;2.15;64.44;99011.75;5064452;28;20223;-67
2022/01/31 03:53:05;;;;;;;10.00;5.47;;;;;;;2.46;63.78;99020.34;5065118;28;20882;-67
2022/01/31 03:55:32;;;;;;;9.33;6.00;;;;;;;2.49;63.55;98993.75;5064061;28;20741;-67
2022/01/31 03:57:59;;;;;;;13.07;5.73;;;;;;;2.02;64.24;98993.56;5065743;28;20343;-67
2022/01/31 04:00:25;;;;;;;12.40;6.50;;;;;;;1.62;65.14;98990.00;5057459;28;20767;-67
2022/01/31 04:02:52;;;;;;;10.73;6.17;;;;;;;1.90;64.80;98998.97;5063690;28;20254;-67
2022/01/31 04:05:19;;;;;;;12.10;6.10;;;;;;;1.98;64.35;98998.28;5063366;28;20265;-67
2022/01/31 04:07:46;;;;;;;10.40;5.80;;;;;;;2.47;63.75;98995.72;5065233;28;20266;-67
2022/01/31 04:10:12;;;;;;;12.67;5.87;;;;;;;2.25;64.54;99002.88;5065582;28;20269;-67
2022/01/31 04:12:39;;;;;;;9.30;5.73;;;;;;;2.18;64.42;98987.78;5064716;28;20242;-67
2022/01/31 04:15:07;;;;;;;11.63;5.90;;;;;;;2.15;65.12;99011.75;5065315;28;20242;-67
2022/01/31 04:17:35;;;;;;;10.07;5.83;;;;;;;2.01;64.95;98994.56;5064454;28;20291;-67
2022/01/31 04:20:02;;;;;;;12.57;6.07;;;;;;;2.09;65.21;99005.22;5061358;28;20322;-67
2022/01/31 04:22:32;;;;;;;11.37;6.27;;;;;;;2.63;64.20;98992.50;5063282;28;20255;-67
2022/01/31 04:25:02;;;;;;;14.50;6.63;;;;;;;2.67;63.90;98973.66;5065322;28;20376;-67
2022/01/31 04:27:33;;;;;;;14.30;6.60;;;;;;;2.03;65.48;98963.69;5057233;28;20304;-67
2022/01/31 04:30:00;;;;;;;12.93;6.40;;;;;;;2.21;64.90;98954.13;5064363;28;20311;-67
2022/01/31 04:32:26;;;;;;;11.43;6.23;;;;;;;2.02;65.64;98951.47;5061849;28;20235;-67
2022/01/31 04:34:53;;;;;;;14.00;7.60;;;;;;;1.88;66.42;98958.78;5066806;28;20237;-75
2022/01/31 04:37:20;;;;;;;15.80;6.87;;;;;;;1.58;67.64;98954.41;5065136;28;20707;-66
2022/01/31 04:39:46;;;;;;;11.83;6.93;;;;;;;1.92;65.70;98914.63;5070301;28;20948;-67
2022/01/31 04:42:13;;;;;;;9.87;6.13;;;;;;;2.01;65.08;98878.81;5069225;28;20320;-67
2022/01/31 04:44:40;;;;;;;9.17;5.03;;;;;;;1.17;68.29;98898.38;5067500;28;20254;-66
2022/01/31 04:47:06;;;;;;;13.53;6.60;;;;;;;1.18;69.44;98918.44;5075145;28;20262;-66
2022/01/31 04:49:35;;;;;;;13.03;6.30;;;;;;;1.54;67.68;98892.56;5064362;28;20258;-66
2022/01/31 04:52:02;;;;;;;9.53;6.60;;;;;;;1.02;66.93;98840.13;5062124;28;20238;-66
2022/01/31 04:54:29;;;;;;;12.57;6.67;;;;;;;2.02;66.58;98875.19;5064754;28;20287;-66
2022/01/31 04:56:56;;;;;;;15.70;6.43;;;;;;;0.84;68.71;98850.41;5063751;28;20737;-66
2022/01/31 04:59:23;;;;;;;13.40;6.27;;;;;;;1.91;66.65;98855.94;5066861;28;20710;-65
2022/01/31 05:01:51;;;;;;;8.50;5.87;;;;;;;1.87;66.54;98848.47;5068730;28;20246;-66
2022/01/31 05:04:18;;;;;;;13.83;7.40;;;;;;;1.85;67.02;98840.72;5068372;28;20319;-66
2022/01/31 05:06:46;;;;;;;8.47;4.63;;;;;;;0.57;70.11;98796.69;5067768;28;20265;-66
2022/01/31 05:09:13;;;;;;;11.07;6.27;;;;;;;1.31;69.16;98831.47;5066836;28;20251;-66
2022/01/31 05:11:40;;;;;;;10.63;6.60;;;;;;;1.50;67.91;98791.28;5068219;28;20957;-66
2022/01/31 05:14:06;;;;;;;9.93;5.67;;;;;;;0.51;70.93;98773.59;5068252;28;20267;-66
2022/01/31 05:16:33;;;;;;;12.40;5.87;;;;;;;1.16;70.45;98799.50;5066567;28;20235;-66
2022/01/31 05:19:04;;;;;;;14.10;6.70;;;;;;;0.71;71.44;98789.44;5068452;28;20798;-66
2022/01/31 05:21:31;;;;;;;10.50;6.37;;;;;;;1.65;68.19;98757.53;5067837;28;20677;-66
2022/01/31 05:23:58;;;;;;;12.67;6.53;;;;;;;1.71;68.32;98763.06;5068345;28;20312;-66
2022/01/31 05:26:24;;;;;;;8.97;6.00;;;;;;;1.72;67.41;98746.34;5066829;28;20312;-66
2022/01/31 05:28:52;;;;;;;11.53;6.33;;;;;;;1.91;66.80;98723.63;5068484;28;20585;-66
2022/01/31 05:31:18;;;;;;;10.60;5.43;;;;;;;1.71;67.99;98739.41;5067748;28;20250;-66
2022/01/31 05:33:45;;;;;;;12.37;5.73;;;;;;;1.40;69.83;98749.22;5067982;28;20243;-65
2022/01/31 05:36:12;;;;;;;14.00;5.93;;;;;;;0.76;71.25;98737.38;5068003;28;20288;-64
2022/01/31 05:38:39;;;;;;;13.13;6.60;;;;;;;2.27;67.14;98705.38;5067959;28;20265;-66
2022/01/31 05:41:10;;;;;;;10.50;6.17;;;;;;;2.32;66.82;98711.03;5067297;28;20369;-66
2022/01/31 05:43:37;;;;;;;12.37;6.43;;;;;;;1.87;67.71;98702.03;5066469;28;20254;-66
2022/01/31 05:46:04;;;;;;;9.60;6.20;;;;;;;0.75;69.32;98673.50;5066258;28;20301;-65
2022/01/31 05:48:31;;;;;;;14.27;6.80;;;;;;;2.17;68.41;98712.47;5067866;28;20236;-65
2022/01/31 05:50:58;;;;;;;12.40;5.80;;;;;;;1.72;69.86;98735.00;5067949;28;20323;-66
2022/01/31 05:53:24;;;;;;;12.47;6.13;;;;;;;1.88;69.29;98727.34;5066812;28;20231;-65
2022/01/31 05:55:51;;;;;;;9.90;6.37;;;;;;;0.89;72.05;98701.19;5068697;28;20667;-66
2022/01/31 05:58:18;;;;;;;13.10;5.57;;;;;;;1.18;71.43;98711.72;5067415;28;20241;-66
2022/01/31 06:00:45;;;;;;;13.13;6.10;;;;;;;1.72;71.06;98719.22;5067393;28;20662;-66
2022/01/31 06:03:12;;;;;;;11.30;6.80;;;;;;;1.69;71.42;98722.13;5066528;28;20253;-66
2022/01/31 06:05:40;;;;;;;13.43;6.90;;;;;;;0.62;75.31;98721.00;5067761;28;20237;-66
2022/01/31 06:08:06;;;;;;;13.93;6.93;;;;;;;1.77;72.61;98731.94;5065885;28;20267;-65
2022/01/31 06:10:40;;;;;;;11.70;6.43;;;;;;;1.51;71.85;98717.56;5067601;28;20238;-66
2022/01/31 06:13:07;;;;;;;15.70;6.30;;;;;;;1.47;72.59;98718.81;5067980;28;20625;-66
2022/01/31 06:15:33;;;;;;;14.30;6.60;;;;;;;2.04;71.05;98715.41;5067045;28;20325;-65
2022/01/31 06:18:00;;;;;;;12.50;5.37;;;;;;;1.28;73.91;98745.91;5067771;28;20239;-65
2022/01/31 06:20:27;;;;;;;12.20;6.40;;;;;;;1.85;72.12;98746.03;5067049;28;20250;-65
2022/01/31 06:22:54;;;;;;;11.03;6.40;;;;;;;1.68;71.33;98707.31;5067307;28;20282;-66
2022/01/31 06:25:21;;;;;;;10.33;5.70;;;;;;;1.00;76.07;98756.19;5067899;28;20355;-65
2022/01/31 06:27:48;;;;;;;11.67;6.20;;;;;;;1.67;73.13;98740.69;5067614;28;20246;-65
2022/01/31 06:30:15;;;;;;;13.17;6.37;;;;;;;0.22;77.21;98719.19;5067507;28;20239;-65
2022/01/31 06:32:41;;;;;;;15.80;6.33;;;;;;;2.15;71.91;98720.50;5066227;28;20659;-65
2022/01/31 06:35:09;;;;;;;12.70;6.50;;;;;;;2.19;71.45;98706.13;5066550;28;20669;-65
2022/01/31 06:37:36;;;;;;;12.13;6.03;;;;;;;1.83;72.93;98728.75;5066783;28;20259;-65
2022/01/31 06:40:05;;;;;;;17.23;7.00;;;;;;;2.12;73.06;98720.78;5066970;28;20261;-65
2022/01/31 06:42:32;;;;;;;9.10;5.90;;;;;;;1.17;74.47;98715.31;5066148;28;20245;-65
2022/01/31 06:44:58;;;;;;;12.60;6.60;;;;;;;1.92;73.27;98723.50;5066701;28;20270;-64
2022/01/31 06:47:25;;;;;;;11.87;6.53;;;;;;;1.99;72.95;98729.00;5066929;28;20296;-65
2022/01/31 06:49:52;;;;;;;10.67;5.80;;;;;;;1.68;73.84;98736.25;5066705;28;20318;-66
2022/01/31 06:52:19;;;;;;;10.63;5.97;;;;;;;2.11;72.33;98721.78;5067161;28;20266;-65
2022/01/31 06:54:50;;;;;;;12.23;6.37;;;;;;;2.07;72.78;98729.13;5065647;28;20329;-65
2022/01/31 06:57:23;;;;;;;12.13;6.47;;;;;;;1.77;74.21;98737.19;5066572;28;20234;-65
2022/01/31 06:59:49;;;;;;;11.87;6.50;;;;;;;1.77;74.58;98737.19;5067153;28;20241;-65
2022/01/31 07:02:16;;;;;;;11.27;5.93;;;;;;;1.97;73.89;98725.66;5066739;28;20649;-65
2022/01/31 07:04:42;;;;;;;11.20;5.87;;;;;;;2.06;73.08;98713.50;5066323;28;20237;-65
2022/01/31 07:07:09;;;;;;;10.20;4.97;;;;;;;2.10;73.59;98733.25;5063296;28;20262;-65
2022/01/31 07:09:36;;;;;;;13.47;5.83;;;;;;;2.54;72.28;98709.84;5066368;28;20257;-65
2022/01/31 07:12:05;;;;;;;10.87;5.10;;;;;;;2.24;73.87;98727.56;5066159;28;20288;-64
2022/01/31 07:14:32;;;;;;;11.13;4.93;;;;;;;1.94;74.53;98729.44;5065699;28;20266;-65
2022/01/31 07:17:05;;;;;;;10.27;4.83;;;;;;;2.37;74.07;98718.50;5065747;28;20252;-65
2022/01/31 07:19:34;;;;;;;6.23;4.00;;;;;;;2.28;74.29;98715.75;5066098;28;20714;-65
2022/01/31 07:22:04;;;;;;;7.77;4.27;;;;;;;2.15;74.67;98728.41;5065741;28;20243;-65
2022/01/31 07:27:05;;;;;;;4.27;3.70;;;;;;;2.16;74.05;98716.91;5066285;28;20267;-65
2022/01/31 07:29:31;;;;;;;5.17;3.87;;;;;;;2.17;74.37;98729.09;5065363;28;20663;-65
2022/01/31 07:32:00;;;;;;;5.73;4.33;;;;;;;2.44;74.17;98735.38;5065051;28;20318;-65
2022/01/31 07:34:28;;;;;;;8.27;4.50;;;;;;;2.46;73.71;98709.72;5064873;28;20319;-65
2022/01/31 07:36:54;;;;;;;4.43;3.90;;;;;;;2.44;74.12;98720.44;5066527;28;20238;-66
2022/01/31 07:39:21;;;;;;;4.60;3.10;;;;;;;2.24;75.28;98746.00;5065528;28;20321;-65
2022/01/31 07:41:48;;;;;;;6.97;3.80;;;;;;;2.35;74.44;98737.06;5065885;28;20340;-65
2022/01/31 07:44:15;;;;;;;6.17;3.97;;;;;;;2.59;73.56;98722.56;5065644;28;20238;-64
2022/01/31 07:46:43;;;;;;;7.27;3.80;;;;;;;2.43;74.45;98737.19;5065392;28;20257;-65
2022/01/31 07:49:09;;;;;;;4.17;3.30;;;;;;;2.75;73.97;98738.59;5066097;28;20266;-65
2022/01/31 07:51:39;;;;;;;7.00;3.67;;;;;;;2.24;73.81;98719.66;5064287;28;20814;-65
2022/01/31 07:54:07;;;;;;;3.80;3.40;;;;;;;2.24;74.89;98732.81;5066663;28;20294;-65
2022/01/31 07:56:34;;;;;;;5.03;3.87;;;;;;;2.56;73.57;98715.81;5088296;28;20250;-65
2022/01/31 07:59:00;;;;;;;5.07;4.20;;;;;;;2.17;74.45;98715.13;5063966;28;20242;-65
2022/01/31 08:01:27;;;;;;;4.27;3.77;;;;;;;2.40;74.11;98718.22;5065428;28;20251;-65
2022/01/31 08:03:54;;;;;;;4.57;3.60;;;;;;;2.80;72.49;98702.09;5065548;28;21056;-65
2022/01/31 08:06:21;;;;;;;8.83;4.43;;;;;;;2.84;72.71;98713.16;5065854;28;20239;-65
2022/01/31 08:08:48;;;;;;;7.87;5.00;;;;;;;2.64;72.74;98712.44;5065379;28;20770;-65
2022/01/31 08:11:14;;;;;;;6.27;4.57;;;;;;;2.67;72.61;98720.03;5065668;28;20266;-65
2022/01/31 08:13:41;;;;;;;5.27;4.77;;;;;;;2.99;72.27;98714.31;5065527;28;20254;-65
2022/01/31 08:18:40;;;;;;;5.63;4.00;;;;;;;2.95;72.95;98733.19;5065350;28;20236;-65
2022/01/31 08:21:08;;;;;;;6.17;3.40;;;;;;;2.97;72.04;98718.09;5064025;28;20269;-65
2022/01/31 08:23:35;;;;;;;5.73;3.47;;;;;;;3.00;72.46;98721.25;5064596;28;20231;-65
2022/01/31 08:26:10;;;;;;;4.83;3.70;;;;;;;3.37;71.31;98704.53;5066165;28;20239;-65
2022/01/31 08:28:43;;;;;;;3.77;3.43;;;;;;;3.12;71.09;98695.53;5065265;28;20235;-65
2022/01/31 08:31:21;;;;;;;8.27;6.40;;;;;;;3.22;70.86;98700.72;5064944;28;20792;-65
2022/01/31 08:34:02;;;;;;;5.87;4.50;;;;;;;3.37;71.22;98712.44;5067454;28;20254;-65
2022/01/31 08:36:34;;;;;;;5.90;4.90;;;;;;;3.29;71.24;98700.91;5069114;28;20657;-64
2022/01/31 08:39:08;;;;;;;3.27;2.97;;;;;;;3.70;70.71;98704.78;5068106;28;20278;-65
2022/01/31 08:41:42;;;;;;;4.87;4.20;;;;;;;3.38;70.89;98697.44;5069445;28;20768;-65
2022/01/31 08:44:11;;;;;;;5.20;3.97;;;;;;;3.68;70.77;98692.75;5067744;28;20372;-66
2022/01/31 08:46:41;;;;;;;6.27;5.03;;;;;;;3.05;72.42;98702.34;5069062;28;20281;-65
2022/01/31 08:49:09;;;;;;;5.97;4.40;;;;;;;3.36;71.96;98704.66;5068752;28;20790;-65
2022/01/31 08:51:36;;;;;;;6.77;3.67;;;;;;;3.24;71.86;98691.66;5068792;28;20300;-65
2022/01/31 08:54:06;;;;;;;6.00;3.80;;;;;;;3.42;71.85;98678.53;5068077;28;20773;-65
2022/01/31 08:56:40;;;;;;;4.10;3.70;;;;;;;3.49;71.57;98673.47;5068952;28;20231;-65
2022/01/31 08:59:18;;;;;;;4.60;3.87;;;;;;;3.67;70.52;98628.59;5068680;28;20267;-65
2022/01/31 09:02:03;;;;;;;5.33;3.90;;;;;;;3.28;72.02;98652.66;5068622;28;20345;-65
2022/01/31 09:07:30;;;;;;;6.80;3.70;;;;;;;3.35;71.63;98661.63;5055329;28;20254;-65
2022/01/31 09:09:59;;;;;;;6.53;4.03;;;;;;;3.46;71.82;98675.59;5068698;28;20285;-65
2022/01/31 09:12:29;;;;;;;5.07;4.57;;;;;;;3.73;70.49;98650.91;5066946;28;20514;-65
2022/01/31 09:14:56;;;;;;;5.77;3.53;;;;;;;3.70;70.53;98644.09;5068483;28;20263;-69
2022/01/31 09:17:23;;;;;;;5.53;4.40;;;;;;;3.41;71.66;98657.59;5067952;28;20228;-68
2022/01/31 09:19:49;;;;;;;5.70;4.60;;;;;;;3.83;70.81;98653.41;5068308;28;20280;-65
2022/01/31 09:22:16;;;;;;;6.13;4.47;;;;;;;4.00;70.89;98652.53;5068663;28;20270;-66
2022/01/31 09:24:44;;;;;;;6.70;3.97;;;;;;;3.83;70.90;98642.84;5068607;28;20292;-66
2022/01/31 09:27:11;;;;;;;5.53;3.60;;;;;;;3.55;71.07;98670.19;5067990;28;20281;-65
2022/01/31 09:29:39;;;;;;;6.87;3.43;;;;;;;3.61;70.97;98652.97;5068100;28;20746;-66
2022/01/31 09:32:07;;;;;;;9.33;3.70;;;;;;;3.85;70.65;98657.56;5068353;28;20663;-66
2022/01/31 09:34:33;;;;;;;6.13;4.30;;;;;;;4.29;69.57;98646.91;5067146;28;20243;-66
2022/01/31 09:37:01;;;;;;;6.03;3.97;;;;;;;3.65;70.49;98627.94;5068400;28;20309;-66
2022/01/31 09:39:28;;;;;;;5.83;4.03;;;;;;;3.83;70.59;98642.84;5067802;28;20276;-66
2022/01/31 09:42:01;;;;;;;9.70;5.20;;;;;;;4.22;69.21;98632.69;5068215;28;20235;-66
2022/01/31 09:49:33;;;;;;;5.80;3.50;;;;;;;3.73;69.85;98672.81;5067590;28;20259;-66
2022/01/31 09:51:59;;;;;;;7.40;4.13;;;;;;;4.22;68.87;98651.16;5067696;28;20243;-66
2022/01/31 09:54:28;;;;;;;6.00;3.63;;;;;;;3.97;69.37;98660.78;5060121;28;20342;-65
2022/01/31 09:56:56;;;;;;;4.80;3.07;;;;;;;3.95;69.72;98673.28;5067837;28;20284;-66
2022/01/31 09:59:23;;;;;;;5.17;3.37;;;;;;;4.10;69.43;98661.19;5065633;28;20219;-66
2022/01/31 10:01:54;;;;;;;5.03;3.60;;;;;;;4.19;69.11;98677.06;5068218;28;20328;-66
2022/01/31 10:04:34;;;;;;;5.20;3.37;;;;;;;4.23;68.78;98654.63;5065562;28;20243;-66
2022/01/31 10:07:02;;;;;;;7.07;3.67;;;;;;;4.41;67.82;98652.72;5067619;28;20260;-66
2022/01/31 10:09:31;;;;;;;5.23;3.50;;;;;;;4.07;68.31;98666.75;5067277;28;20233;-66
2022/01/31 10:12:18;;;;;;;5.13;3.17;;;;;;;4.29;67.60;98654.00;5067196;28;20271;-66
2022/01/31 10:17:37;;;;;;;4.50;3.07;;;;;;;4.05;66.10;98628.34;5066951;28;20315;-66
2022/01/31 10:20:31;;;;;;;3.53;2.70;;;;;;;4.38;65.38;98663.59;5066687;28;20242;-66
2022/01/31 10:23:12;;;;;;;6.77;3.77;;;;;;;4.51;65.92;98652.59;5066700;28;20274;-66
2022/01/31 10:25:39;;;;;;;7.07;3.63;;;;;;;4.29;66.07;98644.28;5067919;28;20288;-66
2022/01/31 10:28:16;;;;;;;4.77;2.90;;;;;;;4.69;64.92;98623.44;5066445;28;20876;-66
2022/01/31 10:30:46;;;;;;;5.23;3.03;;;;;;;4.38;66.42;98646.94;5066952;28;20235;-66
2022/01/31 10:33:14;;;;;;;5.60;3.20;;;;;;;4.69;65.98;98632.19;5062770;28;20232;-66
2022/01/31 10:35:42;;;;;;;4.77;3.37;;;;;;;4.66;65.23;98644.91;5066977;28;20628;-66
2022/01/31 10:38:17;;;;;;;6.00;3.13;;;;;;;4.52;64.83;98644.53;5066623;28;20231;-66
2022/01/31 10:52:07;;;;;;;6.80;3.23;;;;;;;4.50;63.91;98641.22;5067108;28;20243;-66
2022/01/31 10:57:05;;;;;;;6.30;3.17;;;;;;;4.48;64.22;98637.91;5066198;28;20320;-67
2022/01/31 10:59:42;;;;;;;9.33;3.20;;;;;;;4.61;63.54;98639.28;5066323;28;20259;-66
2022/01/31 11:04:00;;;;;;;4.20;2.90;;;;;;;3.27;65.28;98666.84;5071015;27;20581;-68
2022/01/31 11:06:27;;;;;;;5.13;2.83;;;;;;;3.71;65.14;98666.88;5063253;28;20231;-68
2022/01/31 11:09:04;;;;;;;3.30;2.63;;;;;;;4.15;64.23;98679.19;5063708;28;20685;-68
2022/01/31 11:11:37;;;;;;;3.33;2.73;;;;;;;4.33;63.61;98639.50;5062513;28;20307;-68
2022/01/31 11:14:05;;;;;;;6.27;3.50;;;;;;;4.66;63.65;98640.44;5061547;28;20243;-68
2022/01/31 11:16:46;;;;;;;5.43;2.70;;;;;;;4.42;63.15;98643.03;5062468;28;20235;-68
2022/01/31 11:19:17;;;;;;;3.93;3.00;;;;;;;4.08;63.60;98628.84;5062316;28;20289;-68
2022/01/31 11:21:47;;;;;;;5.40;3.07;;;;;;;4.36;63.45;98666.41;5063014;28;20235;-68
2022/01/31 11:24:25;;;;;;;6.23;3.23;;;;;;;4.10;61.82;98647.16;5062438;28;20664;-68
2022/01/31 11:27:03;;;;;;;6.40;3.00;;;;;;;5.11;61.03;98670.16;5068097;28;20235;-68
2022/01/31 11:29:34;;;;;;;4.80;2.80;;;;;;;4.26;62.62;98675.44;5082345;28;20237;-68
2022/01/31 11:32:02;;;;;;;6.83;3.40;;;;;;;4.33;61.77;98673.81;5081834;28;20312;-68
2022/01/31 11:34:30;;;;;;;7.57;3.10;;;;;;;4.09;62.61;98663.97;5076964;28;20265;-68
2022/01/31 11:36:57;;;;;;;6.30;3.03;;;;;;;4.23;62.55;98673.97;5082995;28;20294;-68
2022/01/31 11:39:23;;;;;;;3.70;2.60;;;;;;;4.68;62.65;98674.63;5082074;28;20322;-68
2022/01/31 11:41:58;;;;;;;7.43;3.03;;;;;;;4.19;61.91;98655.94;5080724;28;20285;-68
2022/01/31 11:44:41;;;;;;;6.17;2.93;;;;;;;4.32;62.26;98653.69;5080903;28;20223;-68
2022/01/31 11:47:08;;;;;;;6.83;3.60;;;;;;;4.61;62.11;98653.31;5082237;28;20731;-68
2022/01/31 11:49:48;;;;;;;4.90;3.40;;;;;;;4.41;62.52;98652.72;5082418;28;20304;-68
2022/01/31 11:52:17;;;;;;;4.80;3.17;;;;;;;4.23;63.41;98647.56;5082211;28;20258;-68
2022/01/31 11:54:46;;;;;;;7.93;3.20;;;;;;;4.33;63.55;98650.91;5080064;28;20246;-68
2022/01/31 11:57:16;;;;;;;6.43;3.63;;;;;;;4.66;62.12;98653.66;5081478;28;20727;-68
2022/01/31 11:59:42;;;;;;;7.30;3.07;;;;;;;4.14;62.23;98667.78;5082478;28;20294;-68
2022/01/31 12:02:14;;;;;;;7.73;3.20;;;;;;;4.64;61.79;98662.75;5082026;28;20731;-68
2022/01/31 12:04:44;;;;;;;3.17;2.80;;;;;;;4.36;62.04;98657.66;5081212;28;20243;-68
2022/01/31 12:07:40;;;;;;;7.17;2.70;;;;;;;4.17;62.13;98656.09;5080226;28;20693;-68
2022/01/31 12:10:11;;;;;;;4.37;2.77;;;;;;;4.55;61.29;98651.28;5081549;28;20235;-68
2022/01/31 12:12:55;;;;;;;3.30;2.80;;;;;;;4.38;60.93;98666.25;5081950;28;20370;-68